sensor_id;sensor_type;location;lat;lon;timestamp;P1;durP1;ratioP1;P2;durP2;ratioP2
40609;SDS011;26316;55.976;37.140;2023-04-03T00:00:49;5.13;;;4.40;;
40609;SDS011;26316;55.976;37.140;2023-04-03T00:03:15;9.57;;;4.95;;
40609;SDS011;26316;55.976;37.140;2023-04-03T00:05:42;12.13;;;4.97;;
40609;SDS011;26316;55.976;37.140;2023-04-03T00:08:07;5.65;;;4.82;;
40609;SDS011;26316;55.976;37.140;2023-04-03T00:10:35;5.95;;;4.65;;
40609;SDS011;26316;55.976;37.140;2023-04-03T00:13:01;6.43;;;5.20;;
40609;SDS011;26316;55.976;37.140;2023-04-03T00:15:28;9.40;;;5.13;;
40609;SDS011;26316;55.976;37.140;2023-04-03T00:17:54;5.97;;;4.70;;
40609;SDS011;26316;55.976;37.140;2023-04-03T00:20:19;8.55;;;4.90;;
40609;SDS011;26316;55.976;37.140;2023-04-03T00:22:45;7.00;;;4.80;;
40609;SDS011;26316;55.976;37.140;2023-04-03T00:25:11;7.13;;;5.18;;
40609;SDS011;26316;55.976;37.140;2023-04-03T00:27:37;5.95;;;4.80;;
40609;SDS011;26316;55.976;37.140;2023-04-03T00:30:05;6.00;;;4.47;;
40609;SDS011;26316;55.976;37.140;2023-04-03T00:32:32;7.97;;;5.30;;
40609;SDS011;26316;55.976;37.140;2023-04-03T00:34:57;7.15;;;5.28;;
40609;SDS011;26316;55.976;37.140;2023-04-03T00:37:23;7.22;;;5.35;;
40609;SDS011;26316;55.976;37.140;2023-04-03T00:39:49;6.65;;;5.40;;
40609;SDS011;26316;55.976;37.140;2023-04-03T00:42:14;6.07;;;5.15;;
40609;SDS011;26316;55.976;37.140;2023-04-03T00:47:08;8.15;;;5.50;;
40609;SDS011;26316;55.976;37.140;2023-04-03T00:49:36;5.57;;;4.97;;
40609;SDS011;26316;55.976;37.140;2023-04-03T00:52:02;6.03;;;5.05;;
40609;SDS011;26316;55.976;37.140;2023-04-03T00:54:29;7.93;;;5.43;;
40609;SDS011;26316;55.976;37.140;2023-04-03T00:56:55;7.00;;;5.00;;
40609;SDS011;26316;55.976;37.140;2023-04-03T00:59:22;7.15;;;5.68;;
40609;SDS011;26316;55.976;37.140;2023-04-03T01:01:52;8.70;;;6.20;;
40609;SDS011;26316;55.976;37.140;2023-04-03T01:04:30;7.43;;;5.50;;
40609;SDS011;26316;55.976;37.140;2023-04-03T01:06:58;7.13;;;5.53;;
40609;SDS011;26316;55.976;37.140;2023-04-03T01:09:27;8.88;;;5.80;;
40609;SDS011;26316;55.976;37.140;2023-04-03T01:11:54;6.97;;;5.65;;
40609;SDS011;26316;55.976;37.140;2023-04-03T01:14:59;9.32;;;5.57;;
40609;SDS011;26316;55.976;37.140;2023-04-03T01:17:33;8.82;;;5.72;;
40609;SDS011;26316;55.976;37.140;2023-04-03T01:22:35;6.93;;;5.68;;
40609;SDS011;26316;55.976;37.140;2023-04-03T01:25:07;8.88;;;6.05;;
40609;SDS011;26316;55.976;37.140;2023-04-03T01:27:33;7.35;;;6.07;;
40609;SDS011;26316;55.976;37.140;2023-04-03T01:29:59;6.35;;;5.47;;
40609;SDS011;26316;55.976;37.140;2023-04-03T01:32:25;8.13;;;5.82;;
40609;SDS011;26316;55.976;37.140;2023-04-03T01:34:51;7.07;;;5.45;;
40609;SDS011;26316;55.976;37.140;2023-04-03T01:37:16;7.45;;;5.85;;
40609;SDS011;26316;55.976;37.140;2023-04-03T01:39:42;7.82;;;5.75;;
40609;SDS011;26316;55.976;37.140;2023-04-03T01:42:08;13.27;;;5.85;;
40609;SDS011;26316;55.976;37.140;2023-04-03T01:47:05;8.07;;;5.25;;
40609;SDS011;26316;55.976;37.140;2023-04-03T01:49:31;7.93;;;5.85;;
40609;SDS011;26316;55.976;37.140;2023-04-03T01:51:57;7.13;;;5.40;;
40609;SDS011;26316;55.976;37.140;2023-04-03T01:54:22;9.90;;;6.13;;
40609;SDS011;26316;55.976;37.140;2023-04-03T01:56:48;6.18;;;5.57;;
40609;SDS011;26316;55.976;37.140;2023-04-03T01:59:14;8.60;;;5.93;;
40609;SDS011;26316;55.976;37.140;2023-04-03T02:01:43;7.70;;;5.90;;
40609;SDS011;26316;55.976;37.140;2023-04-03T02:04:10;9.90;;;5.78;;
40609;SDS011;26316;55.976;37.140;2023-04-03T02:06:37;6.80;;;5.75;;
40609;SDS011;26316;55.976;37.140;2023-04-03T02:09:03;6.88;;;5.82;;
40609;SDS011;26316;55.976;37.140;2023-04-03T02:11:29;8.15;;;5.97;;
40609;SDS011;26316;55.976;37.140;2023-04-03T02:13:55;8.48;;;5.40;;
40609;SDS011;26316;55.976;37.140;2023-04-03T02:16:21;7.40;;;5.68;;
40609;SDS011;26316;55.976;37.140;2023-04-03T02:18:48;6.57;;;5.75;;
40609;SDS011;26316;55.976;37.140;2023-04-03T02:21:14;8.10;;;6.65;;
40609;SDS011;26316;55.976;37.140;2023-04-03T02:23:39;8.43;;;6.57;;
40609;SDS011;26316;55.976;37.140;2023-04-03T02:26:06;7.05;;;5.55;;
40609;SDS011;26316;55.976;37.140;2023-04-03T02:28:34;10.32;;;6.13;;
40609;SDS011;26316;55.976;37.140;2023-04-03T02:31:01;9.18;;;6.35;;
40609;SDS011;26316;55.976;37.140;2023-04-03T02:33:28;6.38;;;5.53;;
40609;SDS011;26316;55.976;37.140;2023-04-03T02:35:56;7.20;;;5.63;;
40609;SDS011;26316;55.976;37.140;2023-04-03T02:38:22;6.30;;;5.60;;
40609;SDS011;26316;55.976;37.140;2023-04-03T02:40:49;7.60;;;6.03;;
40609;SDS011;26316;55.976;37.140;2023-04-03T02:43:14;5.60;;;5.10;;
40609;SDS011;26316;55.976;37.140;2023-04-03T02:45:40;8.60;;;5.88;;
40609;SDS011;26316;55.976;37.140;2023-04-03T02:48:06;7.55;;;5.75;;
40609;SDS011;26316;55.976;37.140;2023-04-03T02:50:31;8.13;;;5.95;;
40609;SDS011;26316;55.976;37.140;2023-04-03T02:52:57;8.63;;;5.45;;
40609;SDS011;26316;55.976;37.140;2023-04-03T02:55:23;8.10;;;5.85;;
40609;SDS011;26316;55.976;37.140;2023-04-03T02:57:51;5.68;;;5.18;;
40609;SDS011;26316;55.976;37.140;2023-04-03T03:00:17;6.05;;;5.45;;
40609;SDS011;26316;55.976;37.140;2023-04-03T03:02:43;5.95;;;5.35;;
40609;SDS011;26316;55.976;37.140;2023-04-03T03:05:09;6.60;;;5.22;;
40609;SDS011;26316;55.976;37.140;2023-04-03T03:07:34;6.85;;;5.60;;
40609;SDS011;26316;55.976;37.140;2023-04-03T03:10:00;5.72;;;5.10;;
40609;SDS011;26316;55.976;37.140;2023-04-03T03:12:26;6.53;;;5.70;;
40609;SDS011;26316;55.976;37.140;2023-04-03T03:14:51;12.05;;;5.13;;
40609;SDS011;26316;55.976;37.140;2023-04-03T03:17:17;7.13;;;5.05;;
40609;SDS011;26316;55.976;37.140;2023-04-03T03:19:43;7.65;;;5.97;;
40609;SDS011;26316;55.976;37.140;2023-04-03T03:22:09;7.05;;;5.25;;
40609;SDS011;26316;55.976;37.140;2023-04-03T03:24:35;6.93;;;5.35;;
40609;SDS011;26316;55.976;37.140;2023-04-03T03:27:00;7.43;;;5.60;;
40609;SDS011;26316;55.976;37.140;2023-04-03T03:29:26;5.70;;;5.20;;
40609;SDS011;26316;55.976;37.140;2023-04-03T03:31:52;6.40;;;5.15;;
40609;SDS011;26316;55.976;37.140;2023-04-03T03:34:18;5.72;;;5.10;;
40609;SDS011;26316;55.976;37.140;2023-04-03T03:36:44;5.93;;;5.32;;
40609;SDS011;26316;55.976;37.140;2023-04-03T03:39:10;5.95;;;4.82;;
40609;SDS011;26316;55.976;37.140;2023-04-03T03:41:35;8.07;;;5.07;;
40609;SDS011;26316;55.976;37.140;2023-04-03T03:44:02;6.40;;;4.65;;
40609;SDS011;26316;55.976;37.140;2023-04-03T03:46:30;9.70;;;4.72;;
40609;SDS011;26316;55.976;37.140;2023-04-03T03:48:56;6.82;;;5.55;;
40609;SDS011;26316;55.976;37.140;2023-04-03T03:51:22;6.60;;;5.90;;
40609;SDS011;26316;55.976;37.140;2023-04-03T03:53:48;9.13;;;5.30;;
40609;SDS011;26316;55.976;37.140;2023-04-03T03:56:17;5.72;;;5.10;;
40609;SDS011;26316;55.976;37.140;2023-04-03T03:58:44;10.32;;;5.25;;
40609;SDS011;26316;55.976;37.140;2023-04-03T04:01:11;8.20;;;5.03;;
40609;SDS011;26316;55.976;37.140;2023-04-03T04:03:41;9.77;;;5.25;;
40609;SDS011;26316;55.976;37.140;2023-04-03T04:06:10;6.75;;;5.07;;
40609;SDS011;26316;55.976;37.140;2023-04-03T04:08:36;9.95;;;5.30;;
40609;SDS011;26316;55.976;37.140;2023-04-03T04:11:03;7.35;;;4.93;;
40609;SDS011;26316;55.976;37.140;2023-04-03T04:13:29;6.15;;;4.88;;
40609;SDS011;26316;55.976;37.140;2023-04-03T04:15:55;8.25;;;4.82;;
40609;SDS011;26316;55.976;37.140;2023-04-03T04:18:22;13.07;;;5.43;;
40609;SDS011;26316;55.976;37.140;2023-04-03T04:20:49;10.43;;;5.22;;
40609;SDS011;26316;55.976;37.140;2023-04-03T04:23:17;8.18;;;5.10;;
40609;SDS011;26316;55.976;37.140;2023-04-03T04:25:44;11.02;;;5.15;;
40609;SDS011;26316;55.976;37.140;2023-04-03T04:28:11;5.93;;;5.32;;
40609;SDS011;26316;55.976;37.140;2023-04-03T04:30:37;6.40;;;5.20;;
40609;SDS011;26316;55.976;37.140;2023-04-03T04:33:03;6.35;;;5.22;;
40609;SDS011;26316;55.976;37.140;2023-04-03T04:35:31;6.32;;;5.18;;
40609;SDS011;26316;55.976;37.140;2023-04-03T04:37:57;8.60;;;5.18;;
40609;SDS011;26316;55.976;37.140;2023-04-03T04:40:22;8.27;;;5.88;;
40609;SDS011;26316;55.976;37.140;2023-04-03T04:42:48;10.00;;;7.57;;
40609;SDS011;26316;55.976;37.140;2023-04-03T04:45:15;11.45;;;7.68;;
40609;SDS011;26316;55.976;37.140;2023-04-03T04:47:43;10.32;;;8.82;;
40609;SDS011;26316;55.976;37.140;2023-04-03T04:50:09;12.88;;;10.32;;
40609;SDS011;26316;55.976;37.140;2023-04-03T04:52:36;16.83;;;10.88;;
40609;SDS011;26316;55.976;37.140;2023-04-03T04:55:02;13.75;;;10.73;;
40609;SDS011;26316;55.976;37.140;2023-04-03T04:57:29;16.02;;;10.20;;
40609;SDS011;26316;55.976;37.140;2023-04-03T04:59:57;15.85;;;10.63;;
40609;SDS011;26316;55.976;37.140;2023-04-03T05:02:22;11.40;;;9.95;;
40609;SDS011;26316;55.976;37.140;2023-04-03T05:04:48;10.77;;;9.65;;
40609;SDS011;26316;55.976;37.140;2023-04-03T05:07:20;11.65;;;10.45;;
40609;SDS011;26316;55.976;37.140;2023-04-03T05:09:45;11.48;;;9.95;;
40609;SDS011;26316;55.976;37.140;2023-04-03T05:12:12;13.45;;;10.57;;
40609;SDS011;26316;55.976;37.140;2023-04-03T05:14:44;11.38;;;9.98;;
40609;SDS011;26316;55.976;37.140;2023-04-03T05:17:10;11.85;;;10.13;;
40609;SDS011;26316;55.976;37.140;2023-04-03T05:19:39;16.37;;;11.13;;
40609;SDS011;26316;55.976;37.140;2023-04-03T05:22:07;12.52;;;10.20;;
40609;SDS011;26316;55.976;37.140;2023-04-03T05:24:33;17.10;;;11.57;;
40609;SDS011;26316;55.976;37.140;2023-04-03T05:27:00;13.77;;;10.73;;
40609;SDS011;26316;55.976;37.140;2023-04-03T05:29:26;18.13;;;10.68;;
40609;SDS011;26316;55.976;37.140;2023-04-03T05:31:52;15.60;;;10.55;;
40609;SDS011;26316;55.976;37.140;2023-04-03T05:34:18;14.80;;;10.90;;
40609;SDS011;26316;55.976;37.140;2023-04-03T05:36:46;15.70;;;10.45;;
40609;SDS011;26316;55.976;37.140;2023-04-03T05:39:14;16.25;;;10.25;;
40609;SDS011;26316;55.976;37.140;2023-04-03T05:41:42;13.48;;;9.88;;
40609;SDS011;26316;55.976;37.140;2023-04-03T05:44:07;15.63;;;10.75;;
40609;SDS011;26316;55.976;37.140;2023-04-03T05:46:33;14.57;;;9.98;;
40609;SDS011;26316;55.976;37.140;2023-04-03T05:49:03;15.13;;;10.18;;
40609;SDS011;26316;55.976;37.140;2023-04-03T05:51:33;14.38;;;10.35;;
40609;SDS011;26316;55.976;37.140;2023-04-03T05:54:21;14.27;;;10.77;;
40609;SDS011;26316;55.976;37.140;2023-04-03T05:56:50;13.45;;;10.32;;
40609;SDS011;26316;55.976;37.140;2023-04-03T05:59:18;14.52;;;9.63;;
40609;SDS011;26316;55.976;37.140;2023-04-03T06:01:46;10.57;;;9.23;;
40609;SDS011;26316;55.976;37.140;2023-04-03T06:04:12;12.18;;;9.68;;
40609;SDS011;26316;55.976;37.140;2023-04-03T06:09:20;11.82;;;8.77;;
40609;SDS011;26316;55.976;37.140;2023-04-03T06:11:46;10.68;;;9.10;;
40609;SDS011;26316;55.976;37.140;2023-04-03T06:14:13;11.75;;;9.23;;
40609;SDS011;26316;55.976;37.140;2023-04-03T06:16:39;11.82;;;8.80;;
40609;SDS011;26316;55.976;37.140;2023-04-03T06:19:07;13.55;;;8.60;;
40609;SDS011;26316;55.976;37.140;2023-04-03T06:21:34;10.98;;;8.52;;
40609;SDS011;26316;55.976;37.140;2023-04-03T06:24:02;12.15;;;9.50;;
40609;SDS011;26316;55.976;37.140;2023-04-03T06:26:28;13.27;;;9.25;;
40609;SDS011;26316;55.976;37.140;2023-04-03T06:28:54;11.25;;;9.25;;
40609;SDS011;26316;55.976;37.140;2023-04-03T06:31:21;14.35;;;9.35;;
40609;SDS011;26316;55.976;37.140;2023-04-03T06:33:47;17.20;;;9.57;;
40609;SDS011;26316;55.976;37.140;2023-04-03T06:36:12;12.93;;;9.43;;
40609;SDS011;26316;55.976;37.140;2023-04-03T06:38:38;13.02;;;8.50;;
40609;SDS011;26316;55.976;37.140;2023-04-03T06:41:04;15.73;;;9.27;;
40609;SDS011;26316;55.976;37.140;2023-04-03T06:43:29;13.38;;;10.30;;
40609;SDS011;26316;55.976;37.140;2023-04-03T06:45:56;17.08;;;10.00;;
40609;SDS011;26316;55.976;37.140;2023-04-03T06:48:22;12.10;;;9.35;;
40609;SDS011;26316;55.976;37.140;2023-04-03T06:50:48;18.15;;;10.70;;
40609;SDS011;26316;55.976;37.140;2023-04-03T06:53:14;13.80;;;9.55;;
40609;SDS011;26316;55.976;37.140;2023-04-03T06:55:40;20.67;;;10.90;;
40609;SDS011;26316;55.976;37.140;2023-04-03T06:58:06;16.58;;;10.93;;
40609;SDS011;26316;55.976;37.140;2023-04-03T07:00:32;14.25;;;10.35;;
40609;SDS011;26316;55.976;37.140;2023-04-03T07:02:57;13.23;;;9.75;;
40609;SDS011;26316;55.976;37.140;2023-04-03T07:05:23;13.43;;;9.73;;
40609;SDS011;26316;55.976;37.140;2023-04-03T07:07:50;13.02;;;9.48;;
40609;SDS011;26316;55.976;37.140;2023-04-03T07:10:16;13.20;;;10.30;;
40609;SDS011;26316;55.976;37.140;2023-04-03T07:12:42;13.52;;;10.25;;
40609;SDS011;26316;55.976;37.140;2023-04-03T07:15:08;13.23;;;10.02;;
40609;SDS011;26316;55.976;37.140;2023-04-03T07:17:34;13.85;;;9.88;;
40609;SDS011;26316;55.976;37.140;2023-04-03T07:20:01;13.85;;;10.02;;
40609;SDS011;26316;55.976;37.140;2023-04-03T07:22:30;13.48;;;9.63;;
40609;SDS011;26316;55.976;37.140;2023-04-03T07:24:56;15.32;;;10.65;;
40609;SDS011;26316;55.976;37.140;2023-04-03T07:27:22;17.05;;;10.32;;
40609;SDS011;26316;55.976;37.140;2023-04-03T07:29:47;16.83;;;10.55;;
40609;SDS011;26316;55.976;37.140;2023-04-03T07:32:15;14.43;;;10.15;;
40609;SDS011;26316;55.976;37.140;2023-04-03T07:34:41;16.30;;;10.60;;
40609;SDS011;26316;55.976;37.140;2023-04-03T07:37:07;14.68;;;10.25;;
40609;SDS011;26316;55.976;37.140;2023-04-03T07:39:34;13.18;;;10.20;;
40609;SDS011;26316;55.976;37.140;2023-04-03T07:42:00;13.95;;;10.18;;
40609;SDS011;26316;55.976;37.140;2023-04-03T07:44:25;16.67;;;10.65;;
40609;SDS011;26316;55.976;37.140;2023-04-03T07:46:51;16.00;;;9.80;;
40609;SDS011;26316;55.976;37.140;2023-04-03T07:49:17;14.27;;;9.85;;
40609;SDS011;26316;55.976;37.140;2023-04-03T07:51:48;15.85;;;10.40;;
40609;SDS011;26316;55.976;37.140;2023-04-03T07:54:14;13.18;;;10.63;;
40609;SDS011;26316;55.976;37.140;2023-04-03T07:56:40;17.92;;;10.63;;
40609;SDS011;26316;55.976;37.140;2023-04-03T07:59:08;14.98;;;10.25;;
40609;SDS011;26316;55.976;37.140;2023-04-03T08:01:35;14.40;;;9.48;;
40609;SDS011;26316;55.976;37.140;2023-04-03T08:04:01;12.82;;;10.68;;
40609;SDS011;26316;55.976;37.140;2023-04-03T08:06:27;15.10;;;10.02;;
40609;SDS011;26316;55.976;37.140;2023-04-03T08:08:54;13.95;;;10.57;;
40609;SDS011;26316;55.976;37.140;2023-04-03T08:11:20;19.63;;;11.20;;
40609;SDS011;26316;55.976;37.140;2023-04-03T08:13:46;12.82;;;10.85;;
40609;SDS011;26316;55.976;37.140;2023-04-03T08:16:13;14.10;;;10.13;;
40609;SDS011;26316;55.976;37.140;2023-04-03T08:21:08;15.05;;;10.63;;
40609;SDS011;26316;55.976;37.140;2023-04-03T08:23:34;16.52;;;11.35;;
40609;SDS011;26316;55.976;37.140;2023-04-03T08:26:05;16.67;;;11.32;;
40609;SDS011;26316;55.976;37.140;2023-04-03T08:28:34;19.00;;;11.18;;
40609;SDS011;26316;55.976;37.140;2023-04-03T08:31:04;17.15;;;12.07;;
40609;SDS011;26316;55.976;37.140;2023-04-03T08:33:31;18.23;;;12.43;;
40609;SDS011;26316;55.976;37.140;2023-04-03T08:35:57;20.95;;;11.27;;
40609;SDS011;26316;55.976;37.140;2023-04-03T08:38:22;19.33;;;11.13;;
40609;SDS011;26316;55.976;37.140;2023-04-03T08:40:59;17.90;;;10.93;;
40609;SDS011;26316;55.976;37.140;2023-04-03T08:46:11;18.63;;;12.07;;
40609;SDS011;26316;55.976;37.140;2023-04-03T08:48:41;18.52;;;12.98;;
40609;SDS011;26316;55.976;37.140;2023-04-03T08:51:14;20.98;;;12.55;;
40609;SDS011;26316;55.976;37.140;2023-04-03T08:53:46;18.85;;;12.18;;
40609;SDS011;26316;55.976;37.140;2023-04-03T08:56:34;15.85;;;11.27;;
40609;SDS011;26316;55.976;37.140;2023-04-03T08:59:03;14.10;;;10.48;;
40609;SDS011;26316;55.976;37.140;2023-04-03T09:01:38;19.98;;;11.13;;
40609;SDS011;26316;55.976;37.140;2023-04-03T09:04:14;16.95;;;11.77;;
40609;SDS011;26316;55.976;37.140;2023-04-03T09:06:42;15.00;;;11.38;;
40609;SDS011;26316;55.976;37.140;2023-04-03T09:23:57;19.30;;;12.43;;
40609;SDS011;26316;55.976;37.140;2023-04-03T09:26:07;15.55;;;11.45;;
40609;SDS011;26316;55.976;37.140;2023-04-03T09:28:40;22.83;;;12.98;;
40609;SDS011;26316;55.976;37.140;2023-04-03T09:33:42;17.88;;;12.38;;
40609;SDS011;26316;55.976;37.140;2023-04-03T09:36:07;19.50;;;12.82;;
40609;SDS011;26316;55.976;37.140;2023-04-03T09:38:33;18.80;;;12.68;;
40609;SDS011;26316;55.976;37.140;2023-04-03T09:41:04;16.75;;;12.02;;
40609;SDS011;26316;55.976;37.140;2023-04-03T09:43:32;13.38;;;11.40;;
40609;SDS011;26316;55.976;37.140;2023-04-03T09:46:18;19.88;;;11.60;;
40609;SDS011;26316;55.976;37.140;2023-04-03T09:49:00;12.40;;;7.78;;
40609;SDS011;26316;55.976;37.140;2023-04-03T09:51:27;18.13;;;7.72;;
40609;SDS011;26316;55.976;37.140;2023-04-03T09:53:54;12.77;;;6.85;;
40609;SDS011;26316;55.976;37.140;2023-04-03T09:56:22;12.57;;;6.78;;
40609;SDS011;26316;55.976;37.140;2023-04-03T09:59:06;17.08;;;6.28;;
40609;SDS011;26316;55.976;37.140;2023-04-03T10:01:34;9.27;;;5.15;;
40609;SDS011;26316;55.976;37.140;2023-04-03T10:04:23;12.55;;;6.05;;
40609;SDS011;26316;55.976;37.140;2023-04-03T10:06:52;9.48;;;6.00;;
40609;SDS011;26316;55.976;37.140;2023-04-03T10:09:26;11.68;;;6.50;;
40609;SDS011;26316;55.976;37.140;2023-04-03T10:14:33;8.63;;;5.93;;
40609;SDS011;26316;55.976;37.140;2023-04-03T10:24:57;9.30;;;5.95;;
40609;SDS011;26316;55.976;37.140;2023-04-03T10:42:15;11.77;;;6.22;;
40609;SDS011;26316;55.976;37.140;2023-04-03T10:47:41;10.57;;;6.43;;
40609;SDS011;26316;55.976;37.140;2023-04-03T10:55:45;11.73;;;6.25;;
40609;SDS011;26316;55.976;37.140;2023-04-03T10:58:48;12.40;;;6.15;;
40609;SDS011;26316;55.976;37.140;2023-04-03T11:01:09;8.50;;;5.43;;
40609;SDS011;26316;55.976;37.140;2023-04-03T11:06:07;9.27;;;5.57;;
40609;SDS011;26316;55.976;37.140;2023-04-03T11:08:36;9.65;;;6.10;;
40609;SDS011;26316;55.976;37.140;2023-04-03T11:11:06;14.35;;;6.55;;
40609;SDS011;26316;55.976;37.140;2023-04-03T11:13:34;10.65;;;6.50;;
40609;SDS011;26316;55.976;37.140;2023-04-03T11:16:04;7.95;;;4.95;;
40609;SDS011;26316;55.976;37.140;2023-04-03T11:18:39;10.50;;;5.40;;
40609;SDS011;26316;55.976;37.140;2023-04-03T11:23:47;10.35;;;5.13;;
40609;SDS011;26316;55.976;37.140;2023-04-03T11:26:17;15.10;;;6.70;;
40609;SDS011;26316;55.976;37.140;2023-04-03T11:28:44;10.80;;;5.88;;
40609;SDS011;26316;55.976;37.140;2023-04-03T11:33:51;8.88;;;5.00;;
40609;SDS011;26316;55.976;37.140;2023-04-03T11:36:29;10.50;;;5.43;;
40609;SDS011;26316;55.976;37.140;2023-04-03T11:38:59;7.28;;;5.35;;
40609;SDS011;26316;55.976;37.140;2023-04-03T11:41:31;11.65;;;5.85;;
40609;SDS011;26316;55.976;37.140;2023-04-03T11:44:02;8.63;;;5.68;;
40609;SDS011;26316;55.976;37.140;2023-04-03T11:46:51;9.23;;;5.32;;
40609;SDS011;26316;55.976;37.140;2023-04-03T12:05:54;10.75;;;5.22;;
40609;SDS011;26316;55.976;37.140;2023-04-03T12:08:46;11.80;;;5.13;;
40609;SDS011;26316;55.976;37.140;2023-04-03T12:11:14;4.70;;;3.80;;
40609;SDS011;26316;55.976;37.140;2023-04-03T12:16:25;9.73;;;5.50;;
40609;SDS011;26316;55.976;37.140;2023-04-03T12:26:40;9.02;;;4.68;;
40609;SDS011;26316;55.976;37.140;2023-04-03T12:29:13;7.13;;;5.07;;
40609;SDS011;26316;55.976;37.140;2023-04-03T12:31:54;7.15;;;4.80;;
40609;SDS011;26316;55.976;37.140;2023-04-03T12:34:29;7.40;;;4.50;;
40609;SDS011;26316;55.976;37.140;2023-04-03T12:47:54;8.82;;;4.85;;
40609;SDS011;26316;55.976;37.140;2023-04-03T12:53:51;8.90;;;5.07;;
40609;SDS011;26316;55.976;37.140;2023-04-03T12:56:22;9.00;;;5.50;;
40609;SDS011;26316;55.976;37.140;2023-04-03T12:58:54;6.75;;;5.13;;
40609;SDS011;26316;55.976;37.140;2023-04-03T13:03:53;8.55;;;5.22;;
40609;SDS011;26316;55.976;37.140;2023-04-03T13:06:29;8.43;;;5.50;;
40609;SDS011;26316;55.976;37.140;2023-04-03T13:08:58;6.82;;;5.07;;
40609;SDS011;26316;55.976;37.140;2023-04-03T13:11:34;12.40;;;4.95;;
40609;SDS011;26316;55.976;37.140;2023-04-03T13:14:02;9.15;;;5.35;;
40609;SDS011;26316;55.976;37.140;2023-04-03T13:16:31;7.55;;;4.40;;
40609;SDS011;26316;55.976;37.140;2023-04-03T13:18:58;11.40;;;4.57;;
40609;SDS011;26316;55.976;37.140;2023-04-03T13:21:26;10.93;;;5.10;;
40609;SDS011;26316;55.976;37.140;2023-04-03T13:23:57;10.57;;;5.32;;
40609;SDS011;26316;55.976;37.140;2023-04-03T13:26:26;15.20;;;6.82;;
40609;SDS011;26316;55.976;37.140;2023-04-03T13:29:05;15.63;;;6.13;;
40609;SDS011;26316;55.976;37.140;2023-04-03T13:31:34;8.40;;;5.45;;
40609;SDS011;26316;55.976;37.140;2023-04-03T13:36:32;8.32;;;5.40;;
40609;SDS011;26316;55.976;37.140;2023-04-03T13:41:42;11.32;;;4.85;;
40609;SDS011;26316;55.976;37.140;2023-04-03T13:46:47;11.07;;;5.93;;
40609;SDS011;26316;55.976;37.140;2023-04-03T13:51:45;12.48;;;5.28;;
40609;SDS011;26316;55.976;37.140;2023-04-03T13:54:16;9.38;;;5.68;;
40609;SDS011;26316;55.976;37.140;2023-04-03T13:56:44;11.82;;;4.78;;
40609;SDS011;26316;55.976;37.140;2023-04-03T14:04:26;7.00;;;5.18;;
40609;SDS011;26316;55.976;37.140;2023-04-03T14:06:53;9.73;;;4.75;;
40609;SDS011;26316;55.976;37.140;2023-04-03T14:09:19;8.23;;;5.00;;
40609;SDS011;26316;55.976;37.140;2023-04-03T14:11:47;9.38;;;5.45;;
40609;SDS011;26316;55.976;37.140;2023-04-03T14:14:15;8.52;;;6.07;;
40609;SDS011;26316;55.976;37.140;2023-04-03T14:19:21;9.50;;;5.10;;
40609;SDS011;26316;55.976;37.140;2023-04-03T14:21:54;9.90;;;5.68;;
40609;SDS011;26316;55.976;37.140;2023-04-03T14:24:20;9.40;;;4.93;;
40609;SDS011;26316;55.976;37.140;2023-04-03T14:26:47;7.30;;;4.80;;
40609;SDS011;26316;55.976;37.140;2023-04-03T14:29:14;7.15;;;5.28;;
40609;SDS011;26316;55.976;37.140;2023-04-03T14:31:40;6.72;;;4.97;;
40609;SDS011;26316;55.976;37.140;2023-04-03T14:34:09;7.70;;;4.30;;
40609;SDS011;26316;55.976;37.140;2023-04-03T14:36:39;12.30;;;5.15;;
40609;SDS011;26316;55.976;37.140;2023-04-03T14:39:07;11.68;;;6.03;;
40609;SDS011;26316;55.976;37.140;2023-04-03T14:41:34;6.15;;;4.90;;
40609;SDS011;26316;55.976;37.140;2023-04-03T14:44:00;7.65;;;5.40;;
40609;SDS011;26316;55.976;37.140;2023-04-03T14:46:29;5.95;;;4.28;;
40609;SDS011;26316;55.976;37.140;2023-04-03T14:49:00;7.18;;;4.80;;
40609;SDS011;26316;55.976;37.140;2023-04-03T14:51:26;8.05;;;4.53;;
40609;SDS011;26316;55.976;37.140;2023-04-03T14:53:52;6.28;;;4.25;;
40609;SDS011;26316;55.976;37.140;2023-04-03T14:56:19;8.23;;;4.65;;
40609;SDS011;26316;55.976;37.140;2023-04-03T14:58:48;5.32;;;4.47;;
40609;SDS011;26316;55.976;37.140;2023-04-03T15:01:23;9.25;;;4.10;;
40609;SDS011;26316;55.976;37.140;2023-04-03T15:03:49;6.63;;;4.57;;
40609;SDS011;26316;55.976;37.140;2023-04-03T15:06:15;6.80;;;4.20;;
40609;SDS011;26316;55.976;37.140;2023-04-03T15:08:41;6.65;;;4.15;;
40609;SDS011;26316;55.976;37.140;2023-04-03T15:11:08;7.38;;;4.25;;
40609;SDS011;26316;55.976;37.140;2023-04-03T15:13:35;6.25;;;4.50;;
40609;SDS011;26316;55.976;37.140;2023-04-03T15:16:02;7.75;;;4.43;;
40609;SDS011;26316;55.976;37.140;2023-04-03T15:18:30;9.88;;;5.15;;
40609;SDS011;26316;55.976;37.140;2023-04-03T15:20:58;8.00;;;4.07;;
40609;SDS011;26316;55.976;37.140;2023-04-03T15:23:23;5.55;;;4.20;;
40609;SDS011;26316;55.976;37.140;2023-04-03T15:25:51;5.88;;;3.72;;
40609;SDS011;26316;55.976;37.140;2023-04-03T15:28:22;6.90;;;4.45;;
40609;SDS011;26316;55.976;37.140;2023-04-03T15:30:50;5.97;;;4.13;;
40609;SDS011;26316;55.976;37.140;2023-04-03T15:33:16;7.25;;;5.03;;
40609;SDS011;26316;55.976;37.140;2023-04-03T15:35:42;7.55;;;3.90;;
40609;SDS011;26316;55.976;37.140;2023-04-03T15:38:08;6.55;;;4.55;;
40609;SDS011;26316;55.976;37.140;2023-04-03T15:40:34;6.55;;;4.80;;
40609;SDS011;26316;55.976;37.140;2023-04-03T15:43:00;5.50;;;4.13;;
40609;SDS011;26316;55.976;37.140;2023-04-03T15:45:28;9.07;;;4.68;;
40609;SDS011;26316;55.976;37.140;2023-04-03T15:47:54;11.40;;;4.53;;
40609;SDS011;26316;55.976;37.140;2023-04-03T15:50:19;6.35;;;4.30;;
40609;SDS011;26316;55.976;37.140;2023-04-03T15:52:47;5.03;;;3.80;;
40609;SDS011;26316;55.976;37.140;2023-04-03T15:55:16;4.70;;;4.00;;
40609;SDS011;26316;55.976;37.140;2023-04-03T15:57:42;6.03;;;5.13;;
40609;SDS011;26316;55.976;37.140;2023-04-03T16:00:08;5.13;;;4.63;;
40609;SDS011;26316;55.976;37.140;2023-04-03T16:02:34;5.07;;;4.55;;
40609;SDS011;26316;55.976;37.140;2023-04-03T16:05:00;5.63;;;4.55;;
40609;SDS011;26316;55.976;37.140;2023-04-03T16:07:25;6.38;;;4.93;;
40609;SDS011;26316;55.976;37.140;2023-04-03T16:09:51;8.48;;;6.57;;
40609;SDS011;26316;55.976;37.140;2023-04-03T16:12:17;6.55;;;5.30;;
40609;SDS011;26316;55.976;37.140;2023-04-03T16:14:43;5.97;;;5.38;;
40609;SDS011;26316;55.976;37.140;2023-04-03T16:17:08;6.65;;;5.97;;
40609;SDS011;26316;55.976;37.140;2023-04-03T16:19:34;5.65;;;5.00;;
40609;SDS011;26316;55.976;37.140;2023-04-03T16:22:00;9.07;;;5.40;;
40609;SDS011;26316;55.976;37.140;2023-04-03T16:24:25;6.68;;;5.53;;
40609;SDS011;26316;55.976;37.140;2023-04-03T16:26:51;8.00;;;5.28;;
40609;SDS011;26316;55.976;37.140;2023-04-03T16:29:18;5.93;;;5.20;;
40609;SDS011;26316;55.976;37.140;2023-04-03T16:31:44;5.43;;;4.90;;
40609;SDS011;26316;55.976;37.140;2023-04-03T16:34:09;5.93;;;4.50;;
40609;SDS011;26316;55.976;37.140;2023-04-03T16:36:35;5.75;;;4.85;;
40609;SDS011;26316;55.976;37.140;2023-04-03T16:39:03;5.93;;;5.35;;
40609;SDS011;26316;55.976;37.140;2023-04-03T16:41:28;5.88;;;5.10;;
40609;SDS011;26316;55.976;37.140;2023-04-03T16:43:54;5.10;;;4.60;;
40609;SDS011;26316;55.976;37.140;2023-04-03T16:46:19;6.97;;;5.20;;